Time;durP1;ratioP1;P1;durP2;ratioP2;P2;SDS_P1;SDS_P2;PMS_P1;PMS_P2;Temp;Humidity;BMP_temperature;BMP_pressure;BME280_temperature;BME280_humidity;BME280_pressure;Samples;Min_cycle;Max_cycle;Signal;HPM_P1;HPM_P2
2023/05/26 00:01:36;;;;;;;8.52;4.68;;;23.70;76.60;;;;;;11022708;32;20010;-74
2023/05/26 00:07:40;;;;;;;8.27;5.05;;;23.50;76.50;;;;;;11024526;32;20337;-74
2023/05/26 00:13:42;;;;;;;7.85;4.90;;;23.40;76.50;;;;;;11024302;32;20032;-74
2023/05/26 00:19:45;;;;;;;6.53;3.80;;;23.40;76.90;;;;;;11010364;32;20023;-74
2023/05/26 00:25:49;;;;;;;8.07;5.53;;;23.40;77.50;;;;;;11010039;32;20026;-74
2023/05/26 00:31:51;;;;;;;7.68;5.65;;;23.40;77.50;;;;;;11023491;32;20026;-75
2023/05/26 00:37:54;;;;;;;8.48;5.68;;;23.40;77.10;;;;;;11010174;32;20037;-74
2023/05/26 00:43:56;;;;;;;7.50;5.32;;;23.30;77.00;;;;;;11023028;32;20077;-74
2023/05/26 00:49:58;;;;;;;6.87;5.18;;;23.10;77.10;;;;;;11022956;32;20033;-74
2023/05/26 00:56:01;;;;;;;7.68;5.10;;;22.90;77.30;;;;;;11019034;32;20077;-74
2023/05/26 01:02:03;;;;;;;10.02;6.93;;;22.80;77.30;;;;;;11022626;32;20036;-75
2023/05/26 01:08:06;;;;;;;9.15;6.20;;;22.70;77.70;;;;;;11022401;32;20324;-75
2023/05/26 01:14:25;;;;;;;7.82;6.28;;;22.70;78.10;;;;;;11021543;32;20014;-74
2023/05/26 01:20:43;;;;;;;8.40;6.60;;;22.80;77.70;;;;;;11021791;32;20068;-74
2023/05/26 01:26:47;;;;;;;10.00;5.80;;;22.80;77.50;;;;;;11021633;32;20100;-74
2023/05/26 01:32:49;;;;;;;7.65;5.03;;;22.70;77.50;;;;;;11020153;32;20446;-74
2023/05/26 01:38:56;;;;;;;7.15;5.57;;;22.70;77.50;;;;;;11021258;32;20042;-75
2023/05/26 01:45:11;;;;;;;8.53;5.17;;;22.70;77.30;;;;;;11008692;32;20044;-75
2023/05/26 01:51:20;;;;;;;7.60;5.57;;;22.70;77.10;;;;;;11020776;32;20023;-74
2023/05/26 01:57:23;;;;;;;10.18;5.95;;;22.70;77.10;;;;;;11020660;32;20018;-75
2023/05/26 02:03:26;;;;;;;8.88;6.90;;;22.70;77.40;;;;;;11020326;32;20018;-75
2023/05/26 02:09:28;;;;;;;8.52;5.35;;;22.70;77.40;;;;;;11016967;32;20026;-75
2023/05/26 02:15:30;;;;;;;8.32;5.82;;;22.60;77.40;;;;;;11016793;32;20105;-75
2023/05/26 02:21:32;;;;;;;10.10;6.65;;;22.50;77.50;;;;;;11019754;32;20041;-75
2023/05/26 02:27:34;;;;;;;8.40;5.82;;;22.40;77.70;;;;;;11015252;32;20023;-75
2023/05/26 02:33:43;;;;;;;10.35;6.57;;;22.40;77.60;;;;;;11015113;32;20041;-74
2023/05/26 02:39:45;;;;;;;7.78;5.25;;;22.30;77.60;;;;;;11015744;32;20022;-75
2023/05/26 02:45:47;;;;;;;7.72;5.47;;;22.30;77.60;;;;;;11014840;32;20042;-74
2023/05/26 02:51:49;;;;;;;8.32;5.37;;;22.30;77.40;;;;;;11018569;32;20438;-75
2023/05/26 02:57:51;;;;;;;6.82;5.32;;;22.30;77.40;;;;;;11018519;32;20072;-75
2023/05/26 03:03:53;;;;;;;9.10;5.22;;;22.20;77.60;;;;;;11004333;32;20056;-75
2023/05/26 03:09:54;;;;;;;6.75;5.00;;;22.20;77.60;;;;;;11018090;32;20037;-74
2023/05/26 03:15:56;;;;;;;7.43;4.70;;;22.20;77.50;;;;;;11017692;32;20045;-75
2023/05/26 03:21:59;;;;;;;7.03;4.97;;;22.30;77.40;;;;;;11013451;32;20021;-74
2023/05/26 03:28:01;;;;;;;8.13;5.45;;;22.20;77.50;;;;;;11017467;32;20061;-75
2023/05/26 03:34:03;;;;;;;7.53;5.75;;;22.10;77.60;;;;;;11017128;32;20400;-74
2023/05/26 03:40:06;;;;;;;6.85;5.03;;;22.00;77.80;;;;;;11017209;32;20030;-74
2023/05/26 03:46:08;;;;;;;9.02;6.32;;;21.80;78.10;;;;;;11003516;32;20044;-74
2023/05/26 03:52:11;;;;;;;6.35;4.47;;;21.80;78.20;;;;;;11016948;32;20034;-74
2023/05/26 03:58:13;;;;;;;7.85;5.60;;;21.80;78.20;;;;;;11016782;32;20431;-74
2023/05/26 04:04:16;;;;;;;6.78;4.82;;;21.80;78.10;;;;;;11016744;32;20333;-74
2023/05/26 04:10:18;;;;;;;7.32;5.40;;;21.80;78.20;;;;;;11016626;32;20010;-74
2023/05/26 04:16:20;;;;;;;6.90;5.12;;;21.90;78.40;;;;;;11016514;32;20033;-75
2023/05/26 04:22:22;;;;;;;6.53;4.68;;;21.90;78.20;;;;;;11002825;32;20045;-74
2023/05/26 04:28:24;;;;;;;8.48;5.62;;;22.00;78.10;;;;;;11002278;32;20340;-74
2023/05/26 04:34:26;;;;;;;6.55;4.47;;;22.00;78.10;;;;;;11013755;32;20060;-75
2023/05/26 04:40:28;;;;;;;6.62;4.47;;;21.90;78.20;;;;;;11016235;32;20019;-74
2023/05/26 04:46:31;;;;;;;6.22;4.18;;;21.90;78.40;;;;;;11005010;32;20054;-74
2023/05/26 04:52:33;;;;;;;6.25;4.28;;;21.90;78.50;;;;;;11022734;32;20049;-74
2023/05/26 04:58:36;;;;;;;6.85;4.32;;;22.00;78.50;;;;;;11006954;32;20335;-75
2023/05/26 05:04:42;;;;;;;8.27;4.47;;;22.20;78.60;;;;;;11023402;32;20053;-75
2023/05/26 05:10:44;;;;;;;8.20;5.65;;;22.30;78.70;;;;;;11007286;32;20400;-75
2023/05/26 05:16:46;;;;;;;10.00;5.47;;;22.40;78.70;;;;;;11021890;32;20022;-74
2023/05/26 05:22:49;;;;;;;8.13;4.90;;;22.40;78.50;;;;;;11021624;32;20068;-75
2023/05/26 05:28:52;;;;;;;8.00;5.28;;;22.60;78.40;;;;;;11020168;32;20034;-74
2023/05/26 05:34:56;;;;;;;7.07;5.03;;;22.60;78.40;;;;;;11019817;32;20027;-72
2023/05/26 05:40:58;;;;;;;5.87;3.72;;;22.60;78.50;;;;;;11007224;32;20392;-72
2023/05/26 05:47:00;;;;;;;6.32;4.78;;;22.80;78.50;;;;;;11020613;32;20040;-72
2023/05/26 05:53:02;;;;;;;6.28;4.15;;;22.80;78.40;;;;;;11020493;32;20049;-72
2023/05/26 05:59:05;;;;;;;6.20;3.92;;;22.90;77.90;;;;;;11019911;32;20340;-72
2023/05/26 06:05:07;;;;;;;6.40;3.87;;;23.00;77.80;;;;;;11009110;32;20030;-71
2023/05/26 06:11:10;;;;;;;6.72;4.12;;;23.10;77.70;;;;;;11054887;32;20030;-72
2023/05/26 06:17:14;;;;;;;5.45;3.33;;;23.30;77.70;;;;;;11007984;32;20049;-73
2023/05/26 06:23:16;;;;;;;6.82;4.60;;;23.40;77.80;;;;;;10986565;32;20030;-72
2023/05/26 06:29:18;;;;;;;5.20;2.95;;;23.50;77.60;;;;;;11005430;32;20038;-72
2023/05/26 06:35:23;;;;;;;4.75;2.65;;;23.60;77.50;;;;;;11018881;32;20049;-72
2023/05/26 06:41:26;;;;;;;4.87;3.28;;;23.70;77.40;;;;;;11014582;32;20022;-73
2023/05/26 06:47:29;;;;;;;4.30;2.70;;;23.80;77.20;;;;;;11005836;32;20030;-74
2023/05/26 06:53:38;;;;;;;6.18;3.53;;;24.00;77.20;;;;;;11017010;32;20030;-72
2023/05/26 06:59:41;;;;;;;3.85;2.15;;;24.10;76.80;;;;;;11017682;32;20014;-73
2023/05/26 07:05:45;;;;;;;4.90;3.20;;;24.20;76.50;;;;;;11017990;32;20332;-74
2023/05/26 07:11:48;;;;;;;6.22;3.08;;;24.30;76.60;;;;;;11003007;32;20068;-73
2023/05/26 07:17:54;;;;;;;6.22;3.37;;;24.30;76.80;;;;;;11004486;32;20026;-73
2023/05/26 07:23:56;;;;;;;6.12;5.22;;;24.60;77.10;;;;;;10634579;26;12573869;-73
2023/05/26 07:29:58;;;;;;;7.60;3.85;;;24.60;76.70;;;;;;10938321;32;20058;-72
2023/05/26 07:36:01;;;;;;;8.38;5.12;;;24.70;75.40;;;;;;10919482;32;20050;-73
2023/05/26 07:42:03;;;;;;;6.68;4.22;;;24.70;75.50;;;;;;10937501;32;20034;-73
2023/05/26 07:48:05;;;;;;;9.40;5.30;;;24.80;74.80;;;;;;10899285;32;20389;-74
2023/05/26 07:54:07;;;;;;;6.50;4.65;;;24.90;74.50;;;;;;10813582;32;20051;-74
2023/05/26 08:00:09;;;;;;;10.68;4.78;;;25.00;73.90;;;;;;10786731;33;20025;-72
2023/05/26 08:06:14;;;;;;;4.10;3.15;;;25.10;73.00;;;;;;10784043;33;20016;-71
2023/05/26 08:12:16;;;;;;;7.03;3.80;;;25.20;72.20;;;;;;10786481;33;20308;-72
2023/05/26 08:18:18;;;;;;;13.05;5.47;;;25.30;71.30;;;;;;10836768;32;20036;-73
2023/05/26 08:24:22;;;;;;;9.90;4.60;;;25.40;71.10;;;;;;10843222;32;20326;-74
2023/05/26 08:30:26;;;;;;;5.87;4.20;;;25.40;71.20;;;;;;10843255;32;20367;-74
2023/05/26 08:36:27;;;;;;;7.50;4.85;;;25.40;70.90;;;;;;10792298;33;20399;-73
2023/05/26 08:42:34;;;;;;;11.45;5.22;;;25.60;70.50;;;;;;10842779;32;20386;-73
2023/05/26 08:48:37;;;;;;;7.12;3.20;;;25.70;69.00;;;;;;10838290;32;20032;-73
2023/05/26 08:54:40;;;;;;;8.32;5.72;;;25.70;69.40;;;;;;10791493;33;20024;-73
2023/05/26 09:00:45;;;;;;;7.90;4.20;;;25.80;69.90;;;;;;10791687;33;20476;-74
2023/05/26 09:06:47;;;;;;;5.85;3.60;;;25.90;68.70;;;;;;10790586;33;20025;-73
2023/05/26 09:12:49;;;;;;;7.07;4.30;;;26.10;67.70;;;;;;10791272;33;20407;-71
2023/05/26 09:19:00;;;;;;;15.70;5.32;;;26.30;66.30;;;;;;10841861;32;20063;-73
2023/05/26 09:25:02;;;;;;;12.40;4.62;;;26.40;66.80;;;;;;10788168;33;20033;-73
2023/05/26 09:31:09;;;;;;;12.15;4.20;;;26.40;67.90;;;;;;10789331;33;20020;-74
2023/05/26 09:37:11;;;;;;;8.80;5.77;;;26.60;67.20;;;;;;10790700;33;20351;-71
2023/05/26 09:43:17;;;;;;;5.78;3.42;;;26.70;65.60;;;;;;10840854;32;20009;-74
2023/05/26 09:49:21;;;;;;;4.55;3.60;;;26.80;66.40;;;;;;10790030;33;20039;-74
2023/05/26 09:55:22;;;;;;;5.82;3.78;;;26.80;66.40;;;;;;10792882;33;20078;-73
2023/05/26 10:01:26;;;;;;;8.93;4.40;;;27.00;65.50;;;;;;10873116;32;20353;-74
2023/05/26 10:07:30;;;;;;;7.78;4.00;;;27.20;64.80;;;;;;10826498;33;20016;-73
2023/05/26 10:13:33;;;;;;;4.82;3.30;;;27.30;63.50;;;;;;10826527;33;20074;-72
2023/05/26 10:19:35;;;;;;;4.85;3.40;;;27.60;63.70;;;;;;10826058;33;20016;-72
2023/05/26 10:25:59;;;;;;;4.97;2.87;;;27.70;64.80;;;;;;10822691;33;20394;-73
2023/05/26 10:32:03;;;;;;;3.85;2.78;;;27.70;62.50;;;;;;10872810;32;20031;-74
2023/05/26 10:38:06;;;;;;;7.15;4.72;;;27.80;61.00;;;;;;10823108;33;20020;-74
2023/05/26 10:44:43;;;;;;;6.50;3.65;;;27.90;64.10;;;;;;10824670;32;20020;-73
2023/05/26 10:50:54;;;;;;;7.15;3.70;;;28.10;62.80;;;;;;10825314;33;20008;-74
2023/05/26 10:56:56;;;;;;;9.95;4.12;;;28.20;61.60;;;;;;10825140;33;20028;-73
2023/05/26 11:02:58;;;;;;;8.18;4.68;;;28.40;62.30;;;;;;10824910;33;20012;-72
2023/05/26 11:09:05;;;;;;;6.65;3.15;;;28.50;60.10;;;;;;10822019;33;20039;-73
2023/05/26 11:15:30;;;;;;;6.70;3.05;;;28.60;60.70;;;;;;10813357;32;20054;-72
2023/05/26 11:21:38;;;;;;;5.30;3.45;;;28.80;59.90;;;;;;10788550;32;20032;-72
2023/05/26 11:27:45;;;;;;;6.28;3.65;;;29.00;58.50;;;;;;10837382;32;20020;-75
2023/05/26 11:33:51;;;;;;;4.78;3.62;;;29.10;57.50;;;;;;10784139;33;20020;-75
2023/05/26 11:40:19;;;;;;;9.63;3.97;;;29.30;57.60;;;;;;10789054;32;20054;-75
2023/05/26 11:46:27;;;;;;;5.25;3.55;;;29.50;59.00;;;;;;10787747;33;20035;-75
2023/05/26 11:52:31;;;;;;;4.30;2.85;;;29.50;56.90;;;;;;10836349;32;20040;-75
2023/05/26 11:58:36;;;;;;;3.58;2.60;;;29.70;56.20;;;;;;10793361;33;20338;-74
2023/05/26 12:04:40;;;;;;;7.72;3.78;;;29.70;56.50;;;;;;10840917;32;20338;-74
2023/05/26 12:10:52;;;;;;;2.22;1.75;;;29.80;55.90;;;;;;10793707;33;20047;-74
2023/05/26 12:17:04;;;;;;;11.43;4.35;;;29.90;54.90;;;;;;10794771;33;20025;-74
2023/05/26 12:23:08;;;;;;;7.87;4.18;;;30.00;55.10;;;;;;10843971;32;20025;-74
2023/05/26 12:29:12;;;;;;;5.72;3.17;;;30.00;55.40;;;;;;10793256;33;20024;-74
2023/05/26 12:35:15;;;;;;;7.62;3.10;;;29.80;54.40;;;;;;10793149;33;20222;-73
2023/05/26 12:41:19;;;;;;;6.80;3.08;;;29.80;55.80;;;;;;10792970;33;20351;-74
2023/05/26 12:47:23;;;;;;;3.90;2.60;;;29.80;54.90;;;;;;10843405;32;20021;-74
2023/05/26 12:53:25;;;;;;;2.85;1.80;;;29.80;54.20;;;;;;10830627;32;20082;-73
2023/05/26 12:59:46;;;;;;;4.05;2.30;;;29.90;53.20;;;;;;10792457;33;20338;-74
2023/05/26 13:05:50;;;;;;;4.70;3.42;;;29.90;52.80;;;;;;10839770;32;20032;-74
2023/05/26 13:11:52;;;;;;;7.35;2.97;;;29.90;52.20;;;;;;10791971;33;20399;-74
2023/05/26 13:17:54;;;;;;;3.87;2.42;;;29.80;52.50;;;;;;10841533;32;20066;-74
2023/05/26 13:23:57;;;;;;;3.97;2.22;;;29.80;52.70;;;;;;10842271;32;20024;-74
2023/05/26 13:30:00;;;;;;;5.20;3.47;;;29.80;52.10;;;;;;10810531;33;20028;-74
2023/05/26 13:36:03;;;;;;;4.72;1.98;;;29.80;51.70;;;;;;10792881;33;20029;-73
2023/05/26 13:42:05;;;;;;;5.47;2.78;;;29.80;52.00;;;;;;10842478;32;20028;-74
2023/05/26 13:48:07;;;;;;;5.97;2.78;;;29.70;52.20;;;;;;10790907;33;20016;-74
2023/05/26 13:54:09;;;;;;;6.55;2.85;;;29.60;51.90;;;;;;10790408;33;20345;-74
2023/05/26 14:00:12;;;;;;;5.35;2.87;;;29.50;53.50;;;;;;10790271;33;20054;-73
2023/05/26 14:06:13;;;;;;;5.90;3.03;;;29.60;54.60;;;;;;10788836;33;20004;-74
2023/05/26 14:12:17;;;;;;;6.22;3.55;;;29.60;57.90;;;;;;10790320;33;20032;-74
2023/05/26 14:18:19;;;;;;;9.90;3.03;;;29.40;57.70;;;;;;10786066;33;20012;-73
2023/05/26 14:24:21;;;;;;;4.12;2.53;;;29.40;57.20;;;;;;10857213;32;20035;-74
2023/05/26 14:30:23;;;;;;;4.20;3.00;;;29.50;56.00;;;;;;10943955;32;20259;-72
2023/05/26 14:36:25;;;;;;;4.10;2.62;;;29.60;55.30;;;;;;10943994;32;20015;-74
2023/05/26 14:42:28;;;;;;;3.92;2.55;;;29.70;54.50;;;;;;10943545;32;20042;-72
2023/05/26 14:48:30;;;;;;;4.85;3.22;;;29.70;54.40;;;;;;10942227;32;20345;-73
2023/05/26 14:54:32;;;;;;;4.62;2.40;;;29.80;54.00;;;;;;10942721;32;20014;-74
2023/05/26 15:00:34;;;;;;;4.20;2.67;;;29.70;53.50;;;;;;10943102;32;20019;-72
2023/05/26 15:06:38;;;;;;;4.03;2.55;;;29.60;53.50;;;;;;10941854;32;20049;-72
2023/05/26 15:12:40;;;;;;;6.15;2.45;;;29.70;53.80;;;;;;10942395;32;20023;-73
2023/05/26 15:18:42;;;;;;;6.80;2.60;;;29.80;53.90;;;;;;10942274;32;20019;-73
2023/05/26 15:24:44;;;;;;;4.43;2.67;;;29.80;53.60;;;;;;10954424;26;20026;-73
2023/05/26 15:30:46;;;;;;;4.25;3.05;;;29.80;54.10;;;;;;10979043;32;20026;-72
2023/05/26 15:36:49;;;;;;;4.03;2.50;;;29.80;53.20;;;;;;10979474;32;20412;-71
2023/05/26 15:42:51;;;;;;;4.30;2.03;;;29.80;53.10;;;;;;10979050;32;20031;-71
2023/05/26 15:48:53;;;;;;;3.65;2.20;;;29.90;53.00;;;;;;10976398;32;20058;-72
2023/05/26 15:54:55;;;;;;;3.55;2.40;;;30.00;53.00;;;;;;10962789;32;20030;-72
2023/05/26 16:00:58;;;;;;;3.78;2.33;;;30.10;52.90;;;;;;10994314;32;20396;-72
2023/05/26 16:07:00;;;;;;;3.75;2.37;;;30.00;53.10;;;;;;11009113;32;20446;-72
2023/05/26 16:13:03;;;;;;;3.83;2.47;;;29.80;53.40;;;;;;11002826;32;20434;-72
2023/05/26 16:19:05;;;;;;;3.85;3.03;;;29.60;53.20;;;;;;11004602;32;20336;-73
2023/05/26 16:25:09;;;;;;;3.22;2.15;;;29.80;53.40;;;;;;11016693;32;20336;-73
2023/05/26 16:31:11;;;;;;;3.33;2.60;;;29.90;53.30;;;;;;10976132;32;20022;-72
2023/05/26 16:37:13;;;;;;;7.28;3.08;;;30.00;53.10;;;;;;10978537;32;20046;-72
2023/05/26 16:43:16;;;;;;;7.18;2.70;;;30.10;53.10;;;;;;10944003;32;20344;-73
2023/05/26 16:49:18;;;;;;;5.70;2.22;;;30.20;53.20;;;;;;10947515;32;20011;-72
2023/05/26 16:55:21;;;;;;;4.28;1.90;;;30.30;53.20;;;;;;10929124;32;20035;-72
2023/05/26 17:01:23;;;;;;;7.43;3.42;;;30.30;53.00;;;;;;10979955;32;20031;-73
2023/05/26 17:07:25;;;;;;;7.03;2.85;;;30.20;53.80;;;;;;10984517;32;20336;-73
2023/05/26 17:13:27;;;;;;;6.87;2.92;;;30.10;53.60;;;;;;10970744;32;20030;-74
2023/05/26 17:19:29;;;;;;;5.10;3.22;;;30.10;53.40;;;;;;10970212;32;20057;-74
2023/05/26 17:25:31;;;;;;;2.67;1.52;;;30.10;53.30;;;;;;10983353;32;20041;-74
2023/05/26 17:31:33;;;;;;;3.30;1.73;;;30.10;53.10;;;;;;10994648;32;20088;-74
2023/05/26 17:37:36;;;;;;;2.75;1.90;;;30.10;53.50;;;;;;11019793;32;20325;-74
2023/05/26 17:43:38;;;;;;;5.20;2.47;;;30.00;53.80;;;;;;11021928;32;20048;-74
2023/05/26 17:49:40;;;;;;;3.47;1.50;;;29.80;54.20;;;;;;11006496;32;20064;-74
2023/05/26 17:55:42;;;;;;;3.90;2.30;;;29.60;54.80;;;;;;10994690;32;20034;-74
2023/05/26 18:01:44;;;;;;;8.45;2.95;;;29.40;55.10;;;;;;11021202;32;20396;-75
2023/05/26 18:07:46;;;;;;;5.30;2.60;;;29.20;55.40;;;;;;10967332;32;20031;-75
2023/05/26 18:13:48;;;;;;;3.60;2.65;;;29.10;55.80;;;;;;10944937;32;20336;-75
2023/05/26 18:19:51;;;;;;;4.65;2.03;;;28.90;56.40;;;;;;10931976;32;20015;-75
2023/05/26 18:25:53;;;;;;;9.07;2.50;;;28.80;56.80;;;;;;10930193;32;20035;-75
2023/05/26 18:31:55;;;;;;;4.95;2.22;;;28.70;57.40;;;;;;10944210;32;20357;-75
2023/05/26 18:37:57;;;;;;;2.87;1.75;;;28.60;57.80;;;;;;10940188;32;20041;-75
2023/05/26 18:44:00;;;;;;;3.65;1.67;;;28.50;58.30;;;;;;10928690;32;20058;-75
2023/05/26 18:50:06;;;;;;;3.15;1.70;;;28.40;58.90;;;;;;10943781;32;20377;-75
2023/05/26 18:56:11;;;;;;;4.90;2.83;;;28.30;59.60;;;;;;10943554;32;20019;-75
2023/05/26 19:02:13;;;;;;;5.43;2.20;;;28.10;60.20;;;;;;10943401;32;20042;-75
2023/05/26 19:08:15;;;;;;;3.30;1.90;;;28.00;61.70;;;;;;10940413;32;20037;-75
2023/05/26 19:14:17;;;;;;;3.75;1.92;;;27.80;63.40;;;;;;10943140;32;20023;-75
2023/05/26 19:20:20;;;;;;;4.47;2.05;;;27.70;64.10;;;;;;10941822;32;20053;-75
2023/05/26 19:26:22;;;;;;;2.75;1.90;;;27.60;64.30;;;;;;10942568;32;20019;-75
2023/05/26 19:32:24;;;;;;;5.43;1.65;;;27.60;65.10;;;;;;10942501;32;20054;-75
2023/05/26 19:38:26;;;;;;;3.83;2.65;;;27.50;65.40;;;;;;10942332;32;20037;-75
2023/05/26 19:44:28;;;;;;;3.37;1.95;;;27.40;66.60;;;;;;10938296;32;20356;-75
2023/05/26 19:50:30;;;;;;;4.35;2.15;;;27.30;67.90;;;;;;10927973;32;20038;-75
2023/05/26 19:56:32;;;;;;;3.50;2.20;;;27.30;68.10;;;;;;10928710;32;20332;-75
2023/05/26 20:02:34;;;;;;;3.35;2.15;;;27.30;68.20;;;;;;10927937;32;20081;-75
2023/05/26 20:08:37;;;;;;;2.90;1.75;;;27.30;68.80;;;;;;10941718;32;20341;-75
2023/05/26 20:14:39;;;;;;;3.90;2.28;;;27.20;69.90;;;;;;10942042;32;20027;-75
2023/05/26 20:20:41;;;;;;;3.50;2.58;;;27.10;69.60;;;;;;10931193;32;20027;-75
2023/05/26 20:26:43;;;;;;;3.45;2.42;;;27.10;69.50;;;;;;10948841;32;20018;-75
2023/05/26 20:32:46;;;;;;;4.32;2.22;;;27.10;70.00;;;;;;10948552;32;20015;-75
2023/05/26 20:38:51;;;;;;;4.53;2.55;;;27.00;70.70;;;;;;10948232;32;20033;-75
2023/05/26 20:44:54;;;;;;;5.75;3.10;;;26.80;71.10;;;;;;10948256;32;20349;-75
2023/05/26 20:50:56;;;;;;;7.37;3.28;;;26.80;72.00;;;;;;10934524;32;20065;-75
2023/05/26 20:56:58;;;;;;;5.85;3.37;;;26.80;72.20;;;;;;10948015;32;20019;-75
2023/05/26 21:03:00;;;;;;;4.90;3.08;;;26.80;72.20;;;;;;10930058;32;20041;-75
2023/05/26 21:09:02;;;;;;;4.32;2.75;;;26.70;73.10;;;;;;10931890;32;20019;-75
2023/05/26 21:15:05;;;;;;;5.62;3.45;;;26.60;73.50;;;;;;10947386;32;20054;-75
2023/05/26 21:21:07;;;;;;;7.40;5.10;;;26.60;73.50;;;;;;10947139;32;20007;-75
2023/05/26 21:27:10;;;;;;;5.68;3.58;;;26.60;73.50;;;;;;10942133;32;20310;-75
2023/05/26 21:33:12;;;;;;;7.85;3.60;;;26.50;73.40;;;;;;10946760;32;20058;-75
2023/05/26 21:39:14;;;;;;;5.68;3.50;;;26.50;73.20;;;;;;10932972;32;20062;-75
2023/05/26 21:45:17;;;;;;;5.62;4.12;;;26.50;73.00;;;;;;10946444;32;20389;-75
2023/05/26 21:51:19;;;;;;;7.28;4.35;;;26.40;73.60;;;;;;10946196;32;20069;-75
2023/05/26 21:57:21;;;;;;;5.45;3.90;;;26.30;74.60;;;;;;10941755;32;20011;-75
2023/05/26 22:03:23;;;;;;;6.60;4.15;;;26.30;75.40;;;;;;10945526;32;20037;-75
2023/05/26 22:09:26;;;;;;;6.43;4.07;;;26.10;75.90;;;;;;10945280;32;20357;-75
2023/05/26 22:15:28;;;;;;;6.85;3.78;;;25.90;76.40;;;;;;10945121;32;20038;-75
2023/05/26 22:21:29;;;;;;;13.15;6.75;;;25.80;76.80;;;;;;10941010;32;20029;-74
2023/05/26 22:27:31;;;;;;;17.37;8.18;;;25.80;76.70;;;;;;10944447;32;20022;-73
2023/05/26 22:33:33;;;;;;;10.57;5.87;;;25.60;75.60;;;;;;10943985;32;20023;-73
2023/05/26 22:39:35;;;;;;;17.60;6.85;;;25.40;74.80;;;;;;10929868;32;20061;-72
2023/05/26 22:45:40;;;;;;;13.48;3.78;;;25.30;73.60;;;;;;10939496;32;20393;-72
2023/05/26 22:51:43;;;;;;;8.90;3.00;;;25.10;72.90;;;;;;10980291;32;20026;-74
2023/05/26 22:57:45;;;;;;;13.77;2.20;;;24.90;72.50;;;;;;10980928;32;20226;-73
2023/05/26 23:03:47;;;;;;;4.10;1.62;;;24.90;71.40;;;;;;10980582;32;20023;-73
2023/05/26 23:09:49;;;;;;;4.65;2.22;;;24.70;71.20;;;;;;10980381;32;20049;-72
2023/05/26 23:15:51;;;;;;;8.10;1.92;;;24.60;71.90;;;;;;10966861;32;20328;-73
2023/05/26 23:21:53;;;;;;;2.35;1.50;;;24.60;71.50;;;;;;10980047;32;20010;-73
2023/05/26 23:27:55;;;;;;;8.80;1.92;;;24.40;71.40;;;;;;11010033;27;20053;-73
2023/05/26 23:33:57;;;;;;;2.15;1.17;;;24.30;72.80;;;;;;11016761;32;20072;-72
2023/05/26 23:39:59;;;;;;;6.10;2.67;;;24.30;75.00;;;;;;11017041;32;20041;-75
2023/05/26 23:46:01;;;;;;;6.87;3.00;;;24.20;74.70;;;;;;11018201;32;20405;-73
2023/05/26 23:52:04;;;;;;;7.75;3.45;;;23.80;75.90;;;;;;11016333;32;20033;-75
2023/05/26 23:58:06;;;;;;;6.05;2.97;;;23.30;76.90;;;;;;11015637;32;20052;-73
